createdAt,value
2023-02-16T00:02:03.354Z,75.47
2023-02-16T00:04:34.526Z,78.50
2023-02-16T00:07:03.708Z,82.95
2023-02-16T00:09:32.206Z,80.65
2023-02-16T00:12:17.877Z,75.35
2023-02-16T00:14:45.924Z,78.55
2023-02-16T00:17:13.729Z,82.90
2023-02-16T00:19:43.223Z,86.10
2023-02-16T00:22:12.900Z,87.15
2023-02-16T00:24:41.097Z,78.53
2023-02-16T00:27:14.894Z,76.97
2023-02-16T00:29:44.808Z,85.47
2023-02-16T00:32:14.882Z,77.40
2023-02-16T00:34:45.786Z,73.60
2023-02-16T00:37:17.719Z,84.63
2023-02-16T00:39:46.344Z,79.70
2023-02-16T00:42:18.815Z,83.93
2023-02-16T00:44:48.412Z,82.95
2023-02-16T00:47:20.182Z,83.65
2023-02-16T00:49:51.101Z,78.90
2023-02-16T00:52:31.469Z,81.95
2023-02-16T00:55:00.897Z,76.43
2023-02-16T00:57:29.574Z,80.72
2023-02-16T01:00:02.837Z,80.80
2023-02-16T01:02:31.009Z,79.35
2023-02-16T01:05:00.418Z,90.90
2023-02-16T01:07:47.049Z,78.50
2023-02-16T01:10:33.235Z,78.60
2023-02-16T01:13:01.587Z,79.78
2023-02-16T01:15:29.633Z,74.78
2023-02-16T01:18:00.425Z,79.95
2023-02-16T01:20:29.629Z,82.10
2023-02-16T01:22:58.810Z,78.57
2023-02-16T01:25:27.112Z,80.03
2023-02-16T01:27:55.032Z,76.07
2023-02-16T01:30:28.999Z,78.10
2023-02-16T01:32:57.739Z,87.22
2023-02-16T01:35:30.501Z,82.57
2023-02-16T01:38:00.191Z,77.88
2023-02-16T01:40:37.265Z,82.40
2023-02-16T01:43:10.346Z,74.15
2023-02-16T01:45:42.194Z,83.82
2023-02-16T01:48:20.973Z,83.60
2023-02-16T01:50:55.795Z,77.55
2023-02-16T01:53:30.395Z,80.35
2023-02-16T01:56:02.291Z,79.10
2023-02-16T01:58:36.980Z,81.60
2023-02-16T02:01:41.530Z,81.50
2023-02-16T02:04:30.844Z,87.45
2023-02-16T02:06:58.963Z,79.50
2023-02-16T02:09:35.198Z,82.30
2023-02-16T02:12:09.428Z,78.72
2023-02-16T02:14:41.409Z,83.00
2023-02-16T02:17:13.857Z,84.03
2023-02-16T02:19:49.197Z,81.75
2023-02-16T02:22:53.133Z,80.22
2023-02-16T02:25:43.366Z,85.50
2023-02-16T02:28:20.377Z,83.82
2023-02-16T02:30:51.062Z,80.53
2023-02-16T02:33:28.212Z,80.57
2023-02-16T02:36:00.358Z,75.22
2023-02-16T02:38:32.698Z,81.93
2023-02-16T02:41:05.526Z,82.70
2023-02-16T02:43:39.780Z,79.38
2023-02-16T02:46:11.831Z,81.10
2023-02-16T02:48:41.263Z,79.97
2023-02-16T02:51:33.939Z,81.95
2023-02-16T02:54:26.693Z,78.45
2023-02-16T02:57:21.835Z,83.45
2023-02-16T03:00:14.484Z,74.43
2023-02-16T03:02:44.182Z,77.57
2023-02-16T03:05:13.304Z,75.55
2023-02-16T03:07:49.716Z,75.80
2023-02-16T03:10:39.008Z,80.93
2023-02-16T03:13:10.188Z,82.93
2023-02-16T03:15:40.208Z,80.53
2023-02-16T03:18:27.677Z,80.25
2023-02-16T03:21:15.711Z,81.57
2023-02-16T03:24:01.651Z,81.20
2023-02-16T03:26:47.558Z,80.95
2023-02-16T03:29:21.463Z,78.15
2023-02-16T03:34:21.822Z,74.40
2023-02-16T03:36:52.623Z,76.05
2023-02-16T03:39:21.116Z,79.57
2023-02-16T03:41:51.335Z,83.13
2023-02-16T03:44:19.630Z,81.00
2023-02-16T03:46:49.522Z,73.40
2023-02-16T03:49:19.561Z,75.22
2023-02-16T03:51:47.764Z,77.57
2023-02-16T03:54:15.704Z,73.35
2023-02-16T03:56:43.797Z,78.45
2023-02-16T03:59:11.847Z,75.78
2023-02-16T04:01:40.527Z,78.38
2023-02-16T04:04:08.570Z,75.97
2023-02-16T04:06:40.327Z,76.38
2023-02-16T04:09:11.295Z,78.47
2023-02-16T04:11:56.893Z,81.55
2023-02-16T04:14:24.852Z,78.22
2023-02-16T04:16:52.808Z,76.25
2023-02-16T04:19:20.943Z,76.28
2023-02-16T04:21:50.101Z,86.47
2023-02-16T04:24:18.081Z,89.28
2023-02-16T04:26:45.936Z,79.72
2023-02-16T04:29:14.710Z,79.45
2023-02-16T04:31:42.749Z,73.70
2023-02-16T04:34:10.870Z,81.13
2023-02-16T04:36:38.724Z,77.50
2023-02-16T04:39:11.054Z,77.47
2023-02-16T04:41:38.985Z,77.53
2023-02-16T04:44:07.177Z,79.70
2023-02-16T04:46:35.167Z,82.10
2023-02-16T04:49:03.665Z,82.88
2023-02-16T04:51:31.624Z,83.65
2023-02-16T04:53:59.487Z,78.20
2023-02-16T04:56:30.121Z,79.93
2023-02-16T04:58:58.098Z,77.15
2023-02-16T05:01:28.199Z,81.22
2023-02-16T05:03:56.399Z,85.60
2023-02-16T05:06:24.239Z,87.05
2023-02-16T05:08:52.071Z,77.93
2023-02-16T05:11:37.312Z,80.03
2023-02-16T05:14:24.206Z,87.80
2023-02-16T05:16:52.462Z,82.13
2023-02-16T05:19:20.363Z,80.28
2023-02-16T05:21:50.604Z,84.22
2023-02-16T05:24:18.847Z,85.78
2023-02-16T05:26:46.764Z,84.18
2023-02-16T05:29:16.049Z,93.25
2023-02-16T05:31:44.072Z,85.60
2023-02-16T05:34:12.232Z,86.68
2023-02-16T05:36:40.192Z,83.63
2023-02-16T05:39:08.608Z,84.68
2023-02-16T05:41:36.402Z,84.93
2023-02-16T05:44:05.176Z,86.80
2023-02-16T05:46:38.061Z,91.28
2023-02-16T05:49:08.645Z,89.72
2023-02-16T05:51:37.386Z,88.70
2023-02-16T05:54:05.893Z,88.45
2023-02-16T05:56:33.790Z,91.20
2023-02-16T05:59:02.127Z,87.53
2023-02-16T06:01:30.072Z,86.70
2023-02-16T06:03:59.358Z,88.13
2023-02-16T06:06:27.406Z,91.18
2023-02-16T06:08:55.166Z,89.10
2023-02-16T06:11:38.713Z,92.88
2023-02-16T06:14:09.317Z,84.68
2023-02-16T06:16:38.798Z,85.82
2023-02-16T06:19:09.621Z,97.22
2023-02-16T06:21:39.963Z,89.45
2023-02-16T06:24:08.529Z,93.70
2023-02-16T06:26:36.646Z,88.28
2023-02-16T06:29:04.888Z,88.53
2023-02-16T06:31:36.655Z,79.53
2023-02-16T06:34:05.542Z,86.65
2023-02-16T06:36:35.065Z,83.68
2023-02-16T06:39:03.240Z,85.70
2023-02-16T06:41:37.933Z,91.63
2023-02-16T06:44:08.777Z,91.57
2023-02-16T06:46:36.779Z,89.95
2023-02-16T06:49:05.198Z,86.88
2023-02-16T06:51:34.678Z,83.93
2023-02-16T06:54:02.422Z,85.13
2023-02-16T06:56:30.641Z,87.55
2023-02-16T06:58:58.509Z,85.75
2023-02-16T07:01:26.452Z,79.28
2023-02-16T07:03:55.326Z,89.55
2023-02-16T07:06:25.167Z,85.30
2023-02-16T07:08:57.146Z,83.82
2023-02-16T07:11:25.050Z,88.82
2023-02-16T07:13:53.035Z,90.60
2023-02-16T07:16:22.244Z,87.95
2023-02-16T07:18:50.281Z,88.07
2023-02-16T07:21:18.070Z,87.18
2023-02-16T07:23:45.849Z,92.30
2023-02-16T07:26:15.244Z,90.00
2023-02-16T07:28:43.253Z,86.28
2023-02-16T07:31:12.494Z,86.45
2023-02-16T07:33:40.991Z,92.57
2023-02-16T07:36:10.323Z,88.10
2023-02-16T07:38:39.036Z,83.25
2023-02-16T07:41:09.627Z,88.68
2023-02-16T07:43:39.765Z,81.68
2023-02-16T07:46:07.639Z,82.43
2023-02-16T07:48:35.677Z,84.95
2023-02-16T07:51:04.128Z,86.25
2023-02-16T07:53:32.796Z,83.68
2023-02-16T07:56:00.833Z,87.93
2023-02-16T07:58:28.843Z,80.25
2023-02-16T08:01:07.240Z,85.93
2023-02-16T08:03:35.088Z,87.40
2023-02-16T08:06:03.946Z,83.32
2023-02-16T08:08:32.076Z,78.50
2023-02-16T08:11:00.248Z,84.63
2023-02-16T08:13:28.107Z,86.32
2023-02-16T08:15:56.779Z,75.60
2023-02-16T08:18:26.019Z,80.47
2023-02-16T08:21:03.673Z,81.88
2023-02-16T08:23:32.549Z,86.47
2023-02-16T08:26:00.342Z,88.22
2023-02-16T08:28:31.772Z,81.25
2023-02-16T08:31:04.692Z,78.95
2023-02-16T08:33:35.208Z,80.38
2023-02-16T08:36:03.859Z,81.38
2023-02-16T08:38:34.428Z,83.57
2023-02-16T08:41:02.621Z,81.10
2023-02-16T08:43:31.070Z,79.38
2023-02-16T08:45:59.453Z,81.53
2023-02-16T08:48:28.873Z,78.15
2023-02-16T08:50:58.137Z,80.63
2023-02-16T08:53:28.218Z,75.22
2023-02-16T08:55:56.674Z,75.75
2023-02-16T08:58:25.854Z,77.55
2023-02-16T09:00:53.891Z,81.78
2023-02-16T09:03:21.753Z,76.28
2023-02-16T09:05:51.423Z,79.53
2023-02-16T09:08:21.653Z,73.97
2023-02-16T09:10:49.419Z,78.35
2023-02-16T09:13:17.417Z,82.00
2023-02-16T09:15:45.462Z,78.07
2023-02-16T09:18:14.377Z,78.75
2023-02-16T09:20:46.414Z,72.88
2023-02-16T09:23:17.785Z,77.10
2023-02-16T09:25:47.077Z,76.93
2023-02-16T09:28:16.100Z,80.63
2023-02-16T09:30:44.721Z,84.05
2023-02-16T09:33:12.978Z,79.50
2023-02-16T09:35:43.045Z,74.97
2023-02-16T09:38:10.937Z,84.85
2023-02-16T09:40:38.827Z,74.97
2023-02-16T09:43:14.467Z,84.00
2023-02-16T09:45:44.203Z,80.07
2023-02-16T09:48:23.446Z,79.95
2023-02-16T09:50:54.905Z,83.53
2023-02-16T09:53:29.346Z,81.40
2023-02-16T09:56:04.170Z,92.23
2023-02-16T09:58:39.020Z,86.78
2023-02-16T10:01:18.436Z,82.55
2023-02-16T10:03:54.233Z,84.43
2023-02-16T10:06:29.353Z,89.30
2023-02-16T10:09:00.638Z,82.55
2023-02-16T10:11:46.793Z,81.70
2023-02-16T10:14:23.350Z,92.13
2023-02-16T10:16:56.400Z,84.18
2023-02-16T10:19:28.979Z,92.18
2023-02-16T10:21:59.997Z,82.47
2023-02-16T10:24:29.550Z,79.40
2023-02-16T10:27:03.486Z,84.97
2023-02-16T10:29:33.969Z,83.10
2023-02-16T10:32:11.830Z,89.72
2023-02-16T10:34:49.930Z,91.63
2023-02-16T10:37:29.659Z,80.13
2023-02-16T10:40:13.809Z,89.90
2023-02-16T10:42:47.319Z,81.95
2023-02-16T10:45:26.297Z,86.72
2023-02-16T10:47:55.696Z,82.43
2023-02-16T10:50:27.277Z,82.78
2023-02-16T10:52:57.841Z,90.45
2023-02-16T10:55:26.378Z,87.28
2023-02-16T10:57:56.645Z,82.45
2023-02-16T11:00:31.758Z,77.72
2023-02-16T11:03:03.184Z,84.97
2023-02-16T11:05:34.424Z,87.85
2023-02-16T11:08:02.689Z,116.05
2023-02-16T11:10:39.727Z,115.13
2023-02-16T11:13:23.731Z,85.70
2023-02-16T11:15:56.173Z,80.68
2023-02-16T11:18:34.234Z,86.32
2023-02-16T11:21:03.477Z,87.97
2023-02-16T11:23:32.631Z,91.80
2023-02-16T11:26:03.264Z,78.55
2023-02-16T11:28:36.358Z,89.50
2023-02-16T11:31:17.802Z,89.30
2023-02-16T11:33:58.011Z,80.65
2023-02-16T11:36:31.276Z,81.68
2023-02-16T11:39:01.716Z,89.28
2023-02-16T11:41:30.166Z,84.55
2023-02-16T11:43:58.584Z,92.00
2023-02-16T11:46:28.059Z,89.93
2023-02-16T11:48:56.769Z,91.15
2023-02-16T11:51:34.729Z,83.28
2023-02-16T11:54:05.726Z,82.65
2023-02-16T11:56:34.922Z,74.18
2023-02-16T11:59:08.728Z,81.75
2023-02-16T12:02:04.737Z,86.50
2023-02-16T12:04:45.322Z,77.43
2023-02-16T12:07:20.335Z,78.07
2023-02-16T12:09:54.766Z,86.93
2023-02-16T12:12:33.202Z,87.25
2023-02-16T12:15:05.622Z,82.28
2023-02-16T12:17:54.985Z,76.68
2023-02-16T12:20:36.568Z,79.05
2023-02-16T12:23:13.808Z,74.57
2023-02-16T12:25:50.120Z,69.97
2023-02-16T12:28:23.609Z,65.60
2023-02-16T12:31:09.705Z,77.47
2023-02-16T12:33:43.652Z,75.82
2023-02-16T12:36:44.672Z,72.55
2023-02-16T12:39:19.332Z,72.45
2023-02-16T12:42:00.676Z,71.95
2023-02-16T12:44:33.800Z,70.38
2023-02-16T12:47:03.636Z,75.10
2023-02-16T12:49:43.203Z,76.57
2023-02-16T12:52:27.358Z,72.25
2023-02-16T12:54:59.099Z,75.72
2023-02-16T12:57:30.848Z,73.65
2023-02-16T13:00:02.357Z,78.80
2023-02-16T13:02:35.299Z,71.22
2023-02-16T13:05:10.021Z,74.75
2023-02-16T13:07:40.883Z,70.95
2023-02-16T13:10:18.440Z,74.72
2023-02-16T13:12:51.286Z,71.72
2023-02-16T13:15:22.025Z,75.45
2023-02-16T13:17:51.510Z,69.32
2023-02-16T13:20:23.080Z,73.97
2023-02-16T13:23:35.588Z,66.22
2023-02-16T13:26:14.734Z,69.07
2023-02-16T13:29:12.117Z,73.28
2023-02-16T13:31:48.839Z,63.70
2023-02-16T13:34:34.384Z,65.28
2023-02-16T13:37:24.080Z,64.13
2023-02-16T13:40:31.223Z,66.20
2023-02-16T13:43:14.285Z,58.45
2023-02-16T13:45:45.551Z,61.65
2023-02-16T13:48:22.419Z,56.70
2023-02-16T13:50:57.704Z,58.38
2023-02-16T13:53:36.586Z,55.40
2023-02-16T13:56:24.494Z,58.03
2023-02-16T13:58:53.815Z,57.53
2023-02-16T14:01:39.909Z,57.30
2023-02-16T14:04:13.562Z,54.72
2023-02-16T14:06:42.879Z,57.10
2023-02-16T14:09:50.730Z,52.63
2023-02-16T14:12:21.254Z,50.60
2023-02-16T14:15:02.926Z,53.78
2023-02-16T14:17:33.733Z,55.95
2023-02-16T14:20:05.422Z,49.22
2023-02-16T14:22:39.237Z,51.60
2023-02-16T14:25:33.239Z,50.25
2023-02-16T14:28:02.340Z,53.03
2023-02-16T14:30:33.076Z,48.10
2023-02-16T14:33:05.630Z,52.85
2023-02-16T14:35:35.729Z,45.00
2023-02-16T14:38:05.759Z,58.50
2023-02-16T14:40:44.817Z,46.80
2023-02-16T14:43:21.684Z,47.28
2023-02-16T14:46:20.405Z,44.20
2023-02-16T14:49:23.897Z,48.20
2023-02-16T14:52:16.149Z,50.17
2023-02-16T14:55:04.108Z,48.15
2023-02-16T14:57:35.339Z,48.60
2023-02-16T15:00:08.406Z,46.08
2023-02-16T15:02:40.645Z,45.85
2023-02-16T15:05:18.821Z,39.92
2023-02-16T15:07:48.265Z,44.20
2023-02-16T15:10:18.555Z,47.55
2023-02-16T15:12:49.186Z,46.53
2023-02-16T15:15:21.001Z,49.85
2023-02-16T15:17:51.344Z,52.80
2023-02-16T15:20:23.287Z,46.47
2023-02-16T15:22:57.312Z,56.85
2023-02-16T15:25:28.281Z,41.00
2023-02-16T15:28:01.888Z,43.28
2023-02-16T15:30:31.610Z,43.22
2023-02-16T15:33:01.848Z,41.53
2023-02-16T15:35:34.689Z,39.47
2023-02-16T15:38:09.382Z,43.80
2023-02-16T15:40:37.832Z,43.00
2023-02-16T15:43:16.727Z,48.92
2023-02-16T15:45:50.259Z,45.03
2023-02-16T15:48:24.822Z,72.90
2023-02-16T15:50:54.896Z,49.97
2023-02-16T15:53:34.892Z,40.38
2023-02-16T15:56:05.355Z,39.75
2023-02-16T15:58:34.857Z,38.40
2023-02-16T16:01:04.400Z,34.33
2023-02-16T16:03:32.723Z,39.50
2023-02-16T16:06:04.947Z,36.20
2023-02-16T16:08:33.560Z,44.65
2023-02-16T16:11:01.543Z,45.60
2023-02-16T16:13:31.291Z,41.92
2023-02-16T16:16:04.693Z,38.65
2023-02-16T16:18:39.774Z,38.83
2023-02-16T16:21:15.044Z,41.75
2023-02-16T16:23:59.288Z,39.90
2023-02-16T16:26:28.886Z,41.70
2023-02-16T16:28:56.947Z,41.47
2023-02-16T16:31:47.651Z,41.75
2023-02-16T16:34:33.076Z,43.40
2023-02-16T16:37:02.757Z,44.40
2023-02-16T16:39:32.555Z,44.65
2023-02-16T16:42:24.852Z,46.50
2023-02-16T16:45:06.143Z,44.53
2023-02-16T16:47:41.222Z,57.25
2023-02-16T16:50:31.725Z,44.90
2023-02-16T16:52:59.807Z,67.85
2023-02-16T16:55:33.673Z,49.70
2023-02-16T16:58:03.410Z,51.42
2023-02-16T17:00:36.891Z,62.28
2023-02-16T17:03:08.849Z,56.13
2023-02-16T17:05:39.599Z,56.28
2023-02-16T17:08:07.801Z,46.70
2023-02-16T17:10:36.964Z,57.05
2023-02-16T17:13:05.105Z,49.17
2023-02-16T17:15:36.749Z,55.88
2023-02-16T17:18:05.875Z,58.15
2023-02-16T17:20:35.397Z,60.30
2023-02-16T17:23:06.329Z,60.40
2023-02-16T17:25:36.010Z,58.75
2023-02-16T17:28:04.946Z,60.75
2023-02-16T17:30:33.461Z,59.42
2023-02-16T17:33:01.516Z,62.88
2023-02-16T17:35:30.422Z,59.03
2023-02-16T17:38:00.100Z,65.47
2023-02-16T17:40:28.155Z,55.30
2023-02-16T17:42:57.495Z,54.83
2023-02-16T17:45:25.359Z,53.90
2023-02-16T17:47:53.890Z,53.97
2023-02-16T17:50:22.370Z,57.00
2023-02-16T17:52:50.312Z,63.90
2023-02-16T17:55:20.019Z,59.38
2023-02-16T17:57:47.944Z,56.13
2023-02-16T18:00:21.497Z,54.17
2023-02-16T18:02:49.774Z,55.72
2023-02-16T18:05:19.935Z,55.75
2023-02-16T18:07:47.778Z,55.10
2023-02-16T18:10:21.113Z,56.53
2023-02-16T18:12:50.421Z,58.33
2023-02-16T18:15:18.826Z,61.30
2023-02-16T18:17:50.745Z,59.15
2023-02-16T18:20:19.952Z,60.33
2023-02-16T18:22:48.320Z,55.83
2023-02-16T18:25:17.112Z,57.80
2023-02-16T18:27:47.872Z,81.15
2023-02-16T18:30:17.024Z,62.17
2023-02-16T18:32:46.132Z,56.95
2023-02-16T18:35:15.297Z,62.50
2023-02-16T18:37:43.438Z,57.30
2023-02-16T18:40:17.311Z,64.38
2023-02-16T18:42:47.281Z,54.42
2023-02-16T18:45:15.658Z,64.13
2023-02-16T18:47:45.209Z,63.45
2023-02-16T18:50:13.561Z,62.85
2023-02-16T18:52:43.411Z,71.82
2023-02-16T18:55:12.347Z,60.25
2023-02-16T18:57:40.575Z,59.63
2023-02-16T19:00:15.159Z,62.40
2023-02-16T19:02:44.230Z,61.45
2023-02-16T19:05:13.292Z,60.83
2023-02-16T19:07:41.279Z,71.43
2023-02-16T19:10:10.907Z,58.72
2023-02-16T19:12:39.887Z,62.65
2023-02-16T19:15:10.333Z,57.85
2023-02-16T19:17:38.853Z,64.57
2023-02-16T19:20:09.700Z,55.22
2023-02-16T19:22:38.064Z,61.80
2023-02-16T19:25:06.633Z,61.13
2023-02-16T19:27:34.775Z,62.45
2023-02-16T19:30:02.881Z,64.38
2023-02-16T19:32:32.108Z,58.70
2023-02-16T19:35:00.023Z,55.88
2023-02-16T19:37:27.947Z,55.63
2023-02-16T19:39:56.041Z,57.60
2023-02-16T19:42:24.428Z,53.38
2023-02-16T19:44:52.538Z,50.42
2023-02-16T19:47:20.683Z,51.70
2023-02-16T19:49:54.435Z,52.00
2023-02-16T19:52:23.247Z,51.33
2023-02-16T19:54:52.098Z,48.47
2023-02-16T19:57:20.198Z,46.92
2023-02-16T19:59:49.534Z,51.95
2023-02-16T20:02:17.947Z,47.30
2023-02-16T20:04:46.875Z,50.38
2023-02-16T20:07:16.274Z,45.08
2023-02-16T20:09:44.206Z,46.20
2023-02-16T20:12:15.597Z,46.97
2023-02-16T20:14:45.334Z,43.63
2023-02-16T20:17:13.288Z,40.38
2023-02-16T20:19:41.691Z,47.13
2023-02-16T20:22:10.123Z,42.95
2023-02-16T20:24:41.208Z,41.05
2023-02-16T20:27:09.753Z,46.72
2023-02-16T20:29:37.935Z,41.67
2023-02-16T20:32:06.881Z,43.53
2023-02-16T20:34:34.960Z,49.55
2023-02-16T20:37:03.696Z,46.35
2023-02-16T20:39:31.517Z,44.60
2023-02-16T20:42:00.947Z,52.58
2023-02-16T20:44:28.733Z,51.97
2023-02-16T20:46:57.020Z,51.13
2023-02-16T20:49:26.267Z,48.92
2023-02-16T20:51:54.734Z,53.80
2023-02-16T20:54:22.584Z,46.35
2023-02-16T20:56:50.347Z,50.63
2023-02-16T20:59:19.474Z,49.33
2023-02-16T21:01:52.159Z,53.03
2023-02-16T21:04:20.801Z,48.70
2023-02-16T21:06:48.743Z,48.00
2023-02-16T21:09:17.160Z,47.42
2023-02-16T21:11:45.097Z,46.83
2023-02-16T21:14:13.717Z,52.03
2023-02-16T21:16:43.646Z,51.70
2023-02-16T21:19:22.444Z,49.50
2023-02-16T21:21:52.006Z,50.60
2023-02-16T21:24:20.078Z,47.85
2023-02-16T21:26:48.228Z,51.42
2023-02-16T21:29:18.352Z,49.85
2023-02-16T21:31:50.419Z,46.00
2023-02-16T21:34:18.783Z,44.65
2023-02-16T21:36:46.635Z,41.15
2023-02-16T21:39:14.985Z,41.95
2023-02-16T21:41:41.782Z,41.20
2023-02-16T21:44:11.714Z,37.65
2023-02-16T21:46:41.241Z,36.33
2023-02-16T21:49:12.462Z,34.70
2023-02-16T21:51:41.408Z,32.35
2023-02-16T21:54:09.893Z,32.90
2023-02-16T21:56:41.483Z,31.25
2023-02-16T21:59:13.689Z,30.60
2023-02-16T22:01:43.342Z,27.67
2023-02-16T22:04:15.214Z,26.13
2023-02-16T22:06:45.822Z,24.30
2023-02-16T22:09:15.377Z,23.00
2023-02-16T22:11:43.681Z,21.50
2023-02-16T22:14:12.172Z,22.13
2023-02-16T22:16:40.627Z,19.65
2023-02-16T22:19:10.193Z,20.05
2023-02-16T22:21:41.230Z,20.88
2023-02-16T22:24:09.612Z,20.52
2023-02-16T22:26:37.491Z,18.83
2023-02-16T22:29:07.199Z,19.23
2023-02-16T22:31:35.615Z,20.70
2023-02-16T22:34:05.350Z,17.85
2023-02-16T22:36:34.340Z,18.95
2023-02-16T22:39:03.638Z,22.83
2023-02-16T22:41:31.586Z,18.27
2023-02-16T22:44:00.268Z,18.58
2023-02-16T22:46:29.471Z,19.75
2023-02-16T22:48:58.508Z,16.50
2023-02-16T22:51:27.856Z,18.33
2023-02-16T22:53:58.154Z,18.65
2023-02-16T22:56:28.268Z,16.35
2023-02-16T22:58:57.798Z,16.50
2023-02-16T23:01:27.148Z,16.42
2023-02-16T23:03:57.585Z,17.38
2023-02-16T23:06:27.414Z,15.30
2023-02-16T23:08:57.124Z,15.02
2023-02-16T23:11:25.883Z,17.10
2023-02-16T23:13:55.236Z,18.17
2023-02-16T23:16:25.457Z,22.45
2023-02-16T23:18:55.350Z,18.75
2023-02-16T23:21:24.988Z,21.35
2023-02-16T23:23:54.162Z,20.00
2023-02-16T23:26:24.007Z,19.83
2023-02-16T23:28:53.087Z,21.75
2023-02-16T23:31:23.237Z,21.58
2023-02-16T23:33:52.212Z,20.48
2023-02-16T23:36:20.336Z,23.17
2023-02-16T23:38:49.482Z,29.55
2023-02-16T23:41:17.595Z,22.50
2023-02-16T23:43:45.671Z,24.20
2023-02-16T23:46:13.954Z,22.70
2023-02-16T23:48:44.557Z,23.58
2023-02-16T23:51:12.393Z,24.33
2023-02-16T23:53:44.239Z,27.27
2023-02-16T23:56:14.729Z,25.55
2023-02-16T23:58:46.218Z,29.00
